sensor_id;sensor_type;location;lat;lon;timestamp;P1;durP1;ratioP1;P2;durP2;ratioP2
64609;SDS011;51019;46.090;6.350;2022-12-29T00:01:01;16.45;;;5.20;;
64609;SDS011;51019;46.090;6.350;2022-12-29T00:03:32;18.15;;;5.60;;
64609;SDS011;51019;46.090;6.350;2022-12-29T00:06:01;15.10;;;4.88;;
64609;SDS011;51019;46.090;6.350;2022-12-29T00:08:29;16.52;;;4.65;;
64609;SDS011;51019;46.090;6.350;2022-12-29T00:11:07;18.42;;;5.13;;
64609;SDS011;51019;46.090;6.350;2022-12-29T00:13:35;16.02;;;4.85;;
64609;SDS011;51019;46.090;6.350;2022-12-29T00:16:20;14.68;;;4.97;;
64609;SDS011;51019;46.090;6.350;2022-12-29T00:18:50;13.60;;;4.35;;
64609;SDS011;51019;46.090;6.350;2022-12-29T00:21:19;14.57;;;4.55;;
64609;SDS011;51019;46.090;6.350;2022-12-29T00:24:05;17.70;;;5.22;;
64609;SDS011;51019;46.090;6.350;2022-12-29T00:26:53;16.33;;;4.88;;
64609;SDS011;51019;46.090;6.350;2022-12-29T00:29:41;21.98;;;6.05;;
64609;SDS011;51019;46.090;6.350;2022-12-29T00:32:26;14.40;;;4.93;;
64609;SDS011;51019;46.090;6.350;2022-12-29T00:35:12;16.33;;;5.70;;
64609;SDS011;51019;46.090;6.350;2022-12-29T00:37:43;16.63;;;5.95;;
64609;SDS011;51019;46.090;6.350;2022-12-29T00:40:32;18.05;;;6.20;;
64609;SDS011;51019;46.090;6.350;2022-12-29T00:43:16;17.58;;;5.75;;
64609;SDS011;51019;46.090;6.350;2022-12-29T00:46:08;16.57;;;5.43;;
64609;SDS011;51019;46.090;6.350;2022-12-29T00:48:37;17.63;;;5.85;;
64609;SDS011;51019;46.090;6.350;2022-12-29T00:51:22;17.95;;;6.80;;
64609;SDS011;51019;46.090;6.350;2022-12-29T00:53:50;16.67;;;6.28;;
64609;SDS011;51019;46.090;6.350;2022-12-29T00:56:18;14.65;;;5.63;;
64609;SDS011;51019;46.090;6.350;2022-12-29T00:58:47;14.43;;;5.03;;
64609;SDS011;51019;46.090;6.350;2022-12-29T01:01:16;14.50;;;5.00;;
64609;SDS011;51019;46.090;6.350;2022-12-29T01:03:45;15.90;;;5.32;;
64609;SDS011;51019;46.090;6.350;2022-12-29T01:06:17;16.35;;;5.15;;
64609;SDS011;51019;46.090;6.350;2022-12-29T01:08:48;15.95;;;5.30;;
64609;SDS011;51019;46.090;6.350;2022-12-29T01:11:36;17.40;;;4.72;;
64609;SDS011;51019;46.090;6.350;2022-12-29T01:14:02;16.80;;;5.80;;
64609;SDS011;51019;46.090;6.350;2022-12-29T01:16:32;14.88;;;4.75;;
64609;SDS011;51019;46.090;6.350;2022-12-29T01:19:01;15.00;;;4.88;;
64609;SDS011;51019;46.090;6.350;2022-12-29T01:21:29;15.10;;;4.88;;
64609;SDS011;51019;46.090;6.350;2022-12-29T01:24:00;14.80;;;4.78;;
64609;SDS011;51019;46.090;6.350;2022-12-29T01:26:29;13.13;;;4.47;;
64609;SDS011;51019;46.090;6.350;2022-12-29T01:28:57;16.55;;;4.97;;
64609;SDS011;51019;46.090;6.350;2022-12-29T01:31:26;14.15;;;4.03;;
64609;SDS011;51019;46.090;6.350;2022-12-29T01:33:54;13.73;;;4.57;;
64609;SDS011;51019;46.090;6.350;2022-12-29T01:36:23;14.80;;;4.40;;
64609;SDS011;51019;46.090;6.350;2022-12-29T01:38:51;15.13;;;4.95;;
64609;SDS011;51019;46.090;6.350;2022-12-29T01:41:21;14.82;;;5.00;;
64609;SDS011;51019;46.090;6.350;2022-12-29T01:43:50;14.68;;;4.43;;
64609;SDS011;51019;46.090;6.350;2022-12-29T01:46:22;14.93;;;4.30;;
64609;SDS011;51019;46.090;6.350;2022-12-29T01:48:55;13.25;;;5.28;;
64609;SDS011;51019;46.090;6.350;2022-12-29T01:51:32;15.65;;;4.72;;
64609;SDS011;51019;46.090;6.350;2022-12-29T01:54:07;13.80;;;3.85;;
64609;SDS011;51019;46.090;6.350;2022-12-29T01:56:42;13.57;;;4.40;;
64609;SDS011;51019;46.090;6.350;2022-12-29T01:59:20;16.98;;;4.50;;
64609;SDS011;51019;46.090;6.350;2022-12-29T02:01:52;13.20;;;4.20;;
64609;SDS011;51019;46.090;6.350;2022-12-29T02:04:21;13.63;;;3.95;;
64609;SDS011;51019;46.090;6.350;2022-12-29T02:06:53;14.38;;;3.92;;
64609;SDS011;51019;46.090;6.350;2022-12-29T02:09:24;14.35;;;4.72;;
64609;SDS011;51019;46.090;6.350;2022-12-29T02:11:54;13.32;;;4.35;;
64609;SDS011;51019;46.090;6.350;2022-12-29T02:14:24;13.95;;;4.13;;
64609;SDS011;51019;46.090;6.350;2022-12-29T02:16:58;12.80;;;4.25;;
64609;SDS011;51019;46.090;6.350;2022-12-29T02:22:42;13.63;;;4.13;;
64609;SDS011;51019;46.090;6.350;2022-12-29T02:25:32;12.75;;;4.35;;
64609;SDS011;51019;46.090;6.350;2022-12-29T02:28:39;14.52;;;4.15;;
64609;SDS011;51019;46.090;6.350;2022-12-29T02:31:25;14.40;;;4.40;;
64609;SDS011;51019;46.090;6.350;2022-12-29T02:34:02;14.48;;;4.28;;
64609;SDS011;51019;46.090;6.350;2022-12-29T02:36:40;14.57;;;4.25;;
64609;SDS011;51019;46.090;6.350;2022-12-29T02:39:15;15.32;;;4.63;;
64609;SDS011;51019;46.090;6.350;2022-12-29T02:41:54;13.27;;;4.90;;
64609;SDS011;51019;46.090;6.350;2022-12-29T02:44:34;13.45;;;4.40;;
64609;SDS011;51019;46.090;6.350;2022-12-29T02:47:09;12.68;;;4.53;;
64609;SDS011;51019;46.090;6.350;2022-12-29T02:49:45;13.52;;;4.82;;
64609;SDS011;51019;46.090;6.350;2022-12-29T02:52:21;12.43;;;3.70;;
64609;SDS011;51019;46.090;6.350;2022-12-29T02:54:54;12.25;;;3.50;;
64609;SDS011;51019;46.090;6.350;2022-12-29T02:57:29;13.27;;;4.03;;
64609;SDS011;51019;46.090;6.350;2022-12-29T03:00:01;13.25;;;4.55;;
64609;SDS011;51019;46.090;6.350;2022-12-29T03:02:43;13.98;;;4.18;;
64609;SDS011;51019;46.090;6.350;2022-12-29T03:05:22;13.32;;;4.15;;
64609;SDS011;51019;46.090;6.350;2022-12-29T03:08:09;12.82;;;3.75;;
64609;SDS011;51019;46.090;6.350;2022-12-29T03:10:50;12.23;;;3.95;;
64609;SDS011;51019;46.090;6.350;2022-12-29T03:13:29;12.85;;;3.63;;
64609;SDS011;51019;46.090;6.350;2022-12-29T03:16:20;16.58;;;5.15;;
64609;SDS011;51019;46.090;6.350;2022-12-29T03:19:02;14.75;;;4.80;;
64609;SDS011;51019;46.090;6.350;2022-12-29T03:21:38;12.75;;;4.35;;
64609;SDS011;51019;46.090;6.350;2022-12-29T03:24:28;12.70;;;4.00;;
64609;SDS011;51019;46.090;6.350;2022-12-29T03:27:00;13.45;;;3.72;;
64609;SDS011;51019;46.090;6.350;2022-12-29T03:29:33;13.27;;;3.38;;
64609;SDS011;51019;46.090;6.350;2022-12-29T03:32:06;12.93;;;3.80;;
64609;SDS011;51019;46.090;6.350;2022-12-29T03:34:43;13.38;;;3.92;;
64609;SDS011;51019;46.090;6.350;2022-12-29T03:37:13;13.82;;;4.00;;
64609;SDS011;51019;46.090;6.350;2022-12-29T03:39:44;13.85;;;4.05;;
64609;SDS011;51019;46.090;6.350;2022-12-29T03:42:14;15.75;;;4.60;;
64609;SDS011;51019;46.090;6.350;2022-12-29T03:44:47;11.30;;;3.40;;
64609;SDS011;51019;46.090;6.350;2022-12-29T03:47:17;11.80;;;4.13;;
64609;SDS011;51019;46.090;6.350;2022-12-29T03:49:50;11.23;;;3.55;;
64609;SDS011;51019;46.090;6.350;2022-12-29T03:52:20;13.63;;;4.10;;
64609;SDS011;51019;46.090;6.350;2022-12-29T03:54:49;14.50;;;3.92;;
64609;SDS011;51019;46.090;6.350;2022-12-29T03:57:31;14.00;;;4.55;;
64609;SDS011;51019;46.090;6.350;2022-12-29T04:00:00;14.48;;;4.00;;
64609;SDS011;51019;46.090;6.350;2022-12-29T04:02:29;13.55;;;3.60;;
64609;SDS011;51019;46.090;6.350;2022-12-29T04:05:05;15.63;;;3.78;;
64609;SDS011;51019;46.090;6.350;2022-12-29T04:07:35;13.27;;;3.63;;
64609;SDS011;51019;46.090;6.350;2022-12-29T04:10:04;12.18;;;3.47;;
64609;SDS011;51019;46.090;6.350;2022-12-29T04:12:33;14.20;;;3.72;;
64609;SDS011;51019;46.090;6.350;2022-12-29T04:15:03;12.45;;;3.38;;
64609;SDS011;51019;46.090;6.350;2022-12-29T04:17:33;12.15;;;3.72;;
64609;SDS011;51019;46.090;6.350;2022-12-29T04:20:02;12.60;;;3.30;;
64609;SDS011;51019;46.090;6.350;2022-12-29T04:22:57;15.23;;;3.72;;
64609;SDS011;51019;46.090;6.350;2022-12-29T04:25:27;13.50;;;3.95;;
64609;SDS011;51019;46.090;6.350;2022-12-29T04:27:55;11.85;;;3.47;;
64609;SDS011;51019;46.090;6.350;2022-12-29T04:30:23;12.90;;;3.75;;
64609;SDS011;51019;46.090;6.350;2022-12-29T04:32:51;13.70;;;3.88;;
64609;SDS011;51019;46.090;6.350;2022-12-29T04:35:24;13.60;;;3.80;;
64609;SDS011;51019;46.090;6.350;2022-12-29T04:37:52;11.55;;;3.58;;
64609;SDS011;51019;46.090;6.350;2022-12-29T04:40:21;13.55;;;4.00;;
64609;SDS011;51019;46.090;6.350;2022-12-29T04:42:51;11.60;;;3.42;;
64609;SDS011;51019;46.090;6.350;2022-12-29T04:45:25;12.43;;;3.10;;
64609;SDS011;51019;46.090;6.350;2022-12-29T04:47:58;10.57;;;3.67;;
64609;SDS011;51019;46.090;6.350;2022-12-29T04:50:31;13.55;;;3.78;;
64609;SDS011;51019;46.090;6.350;2022-12-29T04:52:59;12.35;;;3.15;;
64609;SDS011;51019;46.090;6.350;2022-12-29T04:55:33;11.85;;;3.40;;
64609;SDS011;51019;46.090;6.350;2022-12-29T04:58:03;12.77;;;4.13;;
64609;SDS011;51019;46.090;6.350;2022-12-29T05:00:31;14.20;;;4.55;;
64609;SDS011;51019;46.090;6.350;2022-12-29T05:03:00;14.20;;;4.07;;
64609;SDS011;51019;46.090;6.350;2022-12-29T05:05:27;14.27;;;4.03;;
64609;SDS011;51019;46.090;6.350;2022-12-29T05:07:58;15.02;;;4.28;;
64609;SDS011;51019;46.090;6.350;2022-12-29T05:10:27;16.63;;;4.65;;
64609;SDS011;51019;46.090;6.350;2022-12-29T05:12:55;18.63;;;4.70;;
64609;SDS011;51019;46.090;6.350;2022-12-29T05:15:25;14.90;;;4.47;;
64609;SDS011;51019;46.090;6.350;2022-12-29T05:17:53;13.30;;;4.00;;
64609;SDS011;51019;46.090;6.350;2022-12-29T05:20:21;12.80;;;3.45;;
64609;SDS011;51019;46.090;6.350;2022-12-29T05:22:52;14.85;;;3.88;;
64609;SDS011;51019;46.090;6.350;2022-12-29T05:25:20;15.00;;;4.70;;
64609;SDS011;51019;46.090;6.350;2022-12-29T05:27:49;13.57;;;4.00;;
64609;SDS011;51019;46.090;6.350;2022-12-29T05:30:16;12.32;;;3.72;;
64609;SDS011;51019;46.090;6.350;2022-12-29T05:32:44;12.70;;;3.72;;
64609;SDS011;51019;46.090;6.350;2022-12-29T05:35:12;13.15;;;3.45;;
64609;SDS011;51019;46.090;6.350;2022-12-29T05:37:40;11.73;;;3.33;;
64609;SDS011;51019;46.090;6.350;2022-12-29T05:40:13;14.75;;;3.30;;
64609;SDS011;51019;46.090;6.350;2022-12-29T05:42:42;10.05;;;2.95;;
64609;SDS011;51019;46.090;6.350;2022-12-29T05:45:10;11.15;;;3.03;;
64609;SDS011;51019;46.090;6.350;2022-12-29T05:47:38;13.43;;;3.20;;
64609;SDS011;51019;46.090;6.350;2022-12-29T05:50:08;13.05;;;3.53;;
64609;SDS011;51019;46.090;6.350;2022-12-29T05:52:35;13.25;;;3.83;;
64609;SDS011;51019;46.090;6.350;2022-12-29T05:55:04;11.20;;;3.08;;
64609;SDS011;51019;46.090;6.350;2022-12-29T05:57:34;13.68;;;3.22;;
64609;SDS011;51019;46.090;6.350;2022-12-29T06:00:02;11.93;;;3.85;;
64609;SDS011;51019;46.090;6.350;2022-12-29T06:02:32;10.23;;;3.38;;
64609;SDS011;51019;46.090;6.350;2022-12-29T06:04:59;11.68;;;3.35;;
64609;SDS011;51019;46.090;6.350;2022-12-29T06:07:28;14.15;;;3.55;;
64609;SDS011;51019;46.090;6.350;2022-12-29T06:09:55;11.90;;;3.58;;
64609;SDS011;51019;46.090;6.350;2022-12-29T06:12:25;14.70;;;3.97;;
64609;SDS011;51019;46.090;6.350;2022-12-29T06:15:06;12.00;;;3.22;;
64609;SDS011;51019;46.090;6.350;2022-12-29T06:17:34;11.18;;;3.30;;
64609;SDS011;51019;46.090;6.350;2022-12-29T06:20:03;11.32;;;3.15;;
64609;SDS011;51019;46.090;6.350;2022-12-29T06:22:32;11.27;;;3.40;;
64609;SDS011;51019;46.090;6.350;2022-12-29T06:25:04;11.80;;;3.38;;
64609;SDS011;51019;46.090;6.350;2022-12-29T06:27:35;11.18;;;3.22;;
64609;SDS011;51019;46.090;6.350;2022-12-29T06:30:07;11.07;;;3.30;;
64609;SDS011;51019;46.090;6.350;2022-12-29T06:32:37;11.18;;;3.63;;
64609;SDS011;51019;46.090;6.350;2022-12-29T06:35:05;10.30;;;3.38;;
64609;SDS011;51019;46.090;6.350;2022-12-29T06:37:36;12.20;;;3.55;;
64609;SDS011;51019;46.090;6.350;2022-12-29T06:40:05;12.23;;;3.30;;
64609;SDS011;51019;46.090;6.350;2022-12-29T06:42:34;10.93;;;3.10;;
64609;SDS011;51019;46.090;6.350;2022-12-29T06:45:02;10.73;;;3.30;;
64609;SDS011;51019;46.090;6.350;2022-12-29T06:47:36;9.23;;;2.70;;
64609;SDS011;51019;46.090;6.350;2022-12-29T06:50:05;8.77;;;2.72;;
64609;SDS011;51019;46.090;6.350;2022-12-29T06:52:33;10.48;;;2.67;;
64609;SDS011;51019;46.090;6.350;2022-12-29T06:55:01;15.45;;;3.22;;
64609;SDS011;51019;46.090;6.350;2022-12-29T06:57:29;11.93;;;3.22;;
64609;SDS011;51019;46.090;6.350;2022-12-29T06:59:56;11.93;;;2.92;;
64609;SDS011;51019;46.090;6.350;2022-12-29T07:02:25;11.00;;;3.47;;
64609;SDS011;51019;46.090;6.350;2022-12-29T07:04:55;12.93;;;2.88;;
64609;SDS011;51019;46.090;6.350;2022-12-29T07:07:22;13.05;;;3.97;;
64609;SDS011;51019;46.090;6.350;2022-12-29T07:09:51;10.45;;;3.10;;
64609;SDS011;51019;46.090;6.350;2022-12-29T07:12:20;10.68;;;2.75;;
64609;SDS011;51019;46.090;6.350;2022-12-29T07:14:48;10.82;;;2.80;;
64609;SDS011;51019;46.090;6.350;2022-12-29T07:17:24;12.00;;;3.33;;
64609;SDS011;51019;46.090;6.350;2022-12-29T07:19:51;10.07;;;2.42;;
64609;SDS011;51019;46.090;6.350;2022-12-29T07:22:22;12.18;;;2.55;;
64609;SDS011;51019;46.090;6.350;2022-12-29T07:24:49;10.52;;;2.45;;
64609;SDS011;51019;46.090;6.350;2022-12-29T07:27:17;9.88;;;2.40;;
64609;SDS011;51019;46.090;6.350;2022-12-29T07:29:45;13.02;;;2.85;;
64609;SDS011;51019;46.090;6.350;2022-12-29T07:32:15;13.15;;;2.40;;
64609;SDS011;51019;46.090;6.350;2022-12-29T07:34:43;9.98;;;2.58;;
64609;SDS011;51019;46.090;6.350;2022-12-29T07:37:15;8.27;;;2.03;;
64609;SDS011;51019;46.090;6.350;2022-12-29T07:39:43;8.88;;;2.15;;
64609;SDS011;51019;46.090;6.350;2022-12-29T07:42:11;9.57;;;2.22;;
64609;SDS011;51019;46.090;6.350;2022-12-29T07:44:42;8.77;;;1.90;;
64609;SDS011;51019;46.090;6.350;2022-12-29T07:47:14;7.28;;;1.63;;
64609;SDS011;51019;46.090;6.350;2022-12-29T07:49:43;9.85;;;1.90;;
64609;SDS011;51019;46.090;6.350;2022-12-29T07:52:11;7.07;;;1.73;;
64609;SDS011;51019;46.090;6.350;2022-12-29T07:54:41;8.00;;;1.92;;
64609;SDS011;51019;46.090;6.350;2022-12-29T07:57:10;7.50;;;2.53;;
64609;SDS011;51019;46.090;6.350;2022-12-29T07:59:38;6.78;;;2.00;;
64609;SDS011;51019;46.090;6.350;2022-12-29T08:02:08;7.10;;;1.58;;
64609;SDS011;51019;46.090;6.350;2022-12-29T08:04:40;8.93;;;2.45;;
64609;SDS011;51019;46.090;6.350;2022-12-29T08:07:08;11.80;;;2.33;;
64609;SDS011;51019;46.090;6.350;2022-12-29T08:09:37;6.72;;;1.63;;
64609;SDS011;51019;46.090;6.350;2022-12-29T08:12:05;9.57;;;2.25;;
64609;SDS011;51019;46.090;6.350;2022-12-29T08:14:33;7.85;;;2.35;;
64609;SDS011;51019;46.090;6.350;2022-12-29T08:17:02;8.38;;;1.70;;
64609;SDS011;51019;46.090;6.350;2022-12-29T08:19:30;6.20;;;1.73;;
64609;SDS011;51019;46.090;6.350;2022-12-29T08:21:58;6.88;;;1.85;;
64609;SDS011;51019;46.090;6.350;2022-12-29T08:24:26;6.35;;;1.60;;
64609;SDS011;51019;46.090;6.350;2022-12-29T08:26:56;8.20;;;1.42;;
64609;SDS011;51019;46.090;6.350;2022-12-29T08:29:24;6.80;;;2.05;;
64609;SDS011;51019;46.090;6.350;2022-12-29T08:31:51;5.22;;;1.60;;
64609;SDS011;51019;46.090;6.350;2022-12-29T08:34:20;4.35;;;1.70;;
64609;SDS011;51019;46.090;6.350;2022-12-29T08:36:49;10.23;;;2.35;;
64609;SDS011;51019;46.090;6.350;2022-12-29T08:39:17;5.82;;;1.65;;
64609;SDS011;51019;46.090;6.350;2022-12-29T08:41:45;5.85;;;1.42;;
64609;SDS011;51019;46.090;6.350;2022-12-29T08:44:15;10.13;;;2.45;;
64609;SDS011;51019;46.090;6.350;2022-12-29T08:46:43;9.60;;;2.22;;
64609;SDS011;51019;46.090;6.350;2022-12-29T08:49:15;9.18;;;2.20;;
64609;SDS011;51019;46.090;6.350;2022-12-29T08:51:44;7.80;;;2.35;;
64609;SDS011;51019;46.090;6.350;2022-12-29T08:54:13;9.35;;;2.10;;
64609;SDS011;51019;46.090;6.350;2022-12-29T08:56:45;9.48;;;2.30;;
64609;SDS011;51019;46.090;6.350;2022-12-29T08:59:25;8.05;;;2.15;;
64609;SDS011;51019;46.090;6.350;2022-12-29T09:02:08;7.97;;;1.85;;
64609;SDS011;51019;46.090;6.350;2022-12-29T09:04:37;11.90;;;2.80;;
64609;SDS011;51019;46.090;6.350;2022-12-29T09:07:05;10.93;;;2.83;;
64609;SDS011;51019;46.090;6.350;2022-12-29T09:09:33;10.68;;;2.17;;
64609;SDS011;51019;46.090;6.350;2022-12-29T09:12:04;8.68;;;1.92;;
64609;SDS011;51019;46.090;6.350;2022-12-29T09:14:36;7.80;;;2.10;;
64609;SDS011;51019;46.090;6.350;2022-12-29T09:17:03;9.05;;;2.20;;
64609;SDS011;51019;46.090;6.350;2022-12-29T09:19:48;10.73;;;3.42;;
64609;SDS011;51019;46.090;6.350;2022-12-29T09:22:15;11.05;;;2.70;;
64609;SDS011;51019;46.090;6.350;2022-12-29T09:24:43;12.98;;;2.45;;
64609;SDS011;51019;46.090;6.350;2022-12-29T09:27:11;13.63;;;2.15;;
64609;SDS011;51019;46.090;6.350;2022-12-29T09:29:49;10.10;;;2.35;;
64609;SDS011;51019;46.090;6.350;2022-12-29T09:32:37;9.55;;;2.22;;
64609;SDS011;51019;46.090;6.350;2022-12-29T09:35:06;10.18;;;2.30;;
64609;SDS011;51019;46.090;6.350;2022-12-29T09:37:34;7.65;;;2.17;;
64609;SDS011;51019;46.090;6.350;2022-12-29T09:40:04;20.33;;;9.27;;
64609;SDS011;51019;46.090;6.350;2022-12-29T09:42:35;10.95;;;2.40;;
64609;SDS011;51019;46.090;6.350;2022-12-29T09:45:13;7.82;;;1.60;;
64609;SDS011;51019;46.090;6.350;2022-12-29T09:47:45;7.47;;;1.90;;
64609;SDS011;51019;46.090;6.350;2022-12-29T09:50:16;6.82;;;1.95;;
64609;SDS011;51019;46.090;6.350;2022-12-29T09:53:04;6.38;;;1.80;;
64609;SDS011;51019;46.090;6.350;2022-12-29T09:55:51;6.55;;;1.55;;
64609;SDS011;51019;46.090;6.350;2022-12-29T09:58:34;8.98;;;1.70;;
64609;SDS011;51019;46.090;6.350;2022-12-29T10:01:12;8.98;;;2.45;;
64609;SDS011;51019;46.090;6.350;2022-12-29T10:03:49;27.45;;;4.72;;
64609;SDS011;51019;46.090;6.350;2022-12-29T10:06:20;18.67;;;2.80;;
64609;SDS011;51019;46.090;6.350;2022-12-29T10:08:52;15.67;;;2.67;;
64609;SDS011;51019;46.090;6.350;2022-12-29T10:11:33;9.13;;;2.30;;
64609;SDS011;51019;46.090;6.350;2022-12-29T10:14:31;17.10;;;4.47;;
64609;SDS011;51019;46.090;6.350;2022-12-29T10:17:14;9.75;;;2.53;;
64609;SDS011;51019;46.090;6.350;2022-12-29T10:19:57;7.63;;;2.17;;
64609;SDS011;51019;46.090;6.350;2022-12-29T10:22:44;12.25;;;2.78;;
64609;SDS011;51019;46.090;6.350;2022-12-29T10:27:42;9.27;;;1.75;;
64609;SDS011;51019;46.090;6.350;2022-12-29T10:28:53;9.15;;;1.75;;
64609;SDS011;51019;46.090;6.350;2022-12-29T10:31:40;7.53;;;1.90;;
64609;SDS011;51019;46.090;6.350;2022-12-29T10:45:00;5.72;;;1.60;;
64609;SDS011;51019;46.090;6.350;2022-12-29T10:50:19;7.30;;;1.63;;
64609;SDS011;51019;46.090;6.350;2022-12-29T10:53:42;7.78;;;1.85;;
64609;SDS011;51019;46.090;6.350;2022-12-29T10:55:35;8.50;;;1.75;;
64609;SDS011;51019;46.090;6.350;2022-12-29T10:58:53;7.00;;;1.65;;
64609;SDS011;51019;46.090;6.350;2022-12-29T11:12:10;7.90;;;1.92;;
64609;SDS011;51019;46.090;6.350;2022-12-29T11:17:37;8.43;;;1.60;;
64609;SDS011;51019;46.090;6.350;2022-12-29T11:23:38;5.90;;;1.33;;
64609;SDS011;51019;46.090;6.350;2022-12-29T11:26:22;6.93;;;2.03;;
64609;SDS011;51019;46.090;6.350;2022-12-29T11:32:10;4.75;;;1.30;;
64609;SDS011;51019;46.090;6.350;2022-12-29T11:34:50;3.60;;;1.30;;
64609;SDS011;51019;46.090;6.350;2022-12-29T11:37:44;5.43;;;1.50;;
64609;SDS011;51019;46.090;6.350;2022-12-29T11:40:18;7.95;;;1.80;;
64609;SDS011;51019;46.090;6.350;2022-12-29T11:42:56;8.45;;;1.95;;
64609;SDS011;51019;46.090;6.350;2022-12-29T11:45:28;6.22;;;1.60;;
64609;SDS011;51019;46.090;6.350;2022-12-29T11:48:05;7.65;;;1.90;;
64609;SDS011;51019;46.090;6.350;2022-12-29T11:50:37;7.40;;;2.00;;
64609;SDS011;51019;46.090;6.350;2022-12-29T11:53:15;10.73;;;3.05;;
64609;SDS011;51019;46.090;6.350;2022-12-29T11:56:08;7.10;;;1.67;;
64609;SDS011;51019;46.090;6.350;2022-12-29T11:58:50;5.97;;;1.60;;
64609;SDS011;51019;46.090;6.350;2022-12-29T12:01:32;6.70;;;1.40;;
64609;SDS011;51019;46.090;6.350;2022-12-29T12:04:10;6.80;;;1.60;;
64609;SDS011;51019;46.090;6.350;2022-12-29T12:06:52;5.90;;;1.50;;
64609;SDS011;51019;46.090;6.350;2022-12-29T12:09:33;8.20;;;1.63;;
64609;SDS011;51019;46.090;6.350;2022-12-29T12:12:19;7.07;;;1.85;;
64609;SDS011;51019;46.090;6.350;2022-12-29T12:15:02;7.07;;;1.48;;
64609;SDS011;51019;46.090;6.350;2022-12-29T12:17:39;6.93;;;1.73;;
64609;SDS011;51019;46.090;6.350;2022-12-29T12:20:21;9.20;;;1.90;;
64609;SDS011;51019;46.090;6.350;2022-12-29T12:22:59;6.72;;;1.90;;
64609;SDS011;51019;46.090;6.350;2022-12-29T12:25:37;8.25;;;2.30;;
64609;SDS011;51019;46.090;6.350;2022-12-29T12:28:09;6.85;;;1.50;;
64609;SDS011;51019;46.090;6.350;2022-12-29T12:30:51;8.75;;;2.33;;
64609;SDS011;51019;46.090;6.350;2022-12-29T12:33:34;7.75;;;1.88;;
64609;SDS011;51019;46.090;6.350;2022-12-29T12:36:24;6.88;;;1.70;;
64609;SDS011;51019;46.090;6.350;2022-12-29T12:39:02;4.72;;;1.45;;
64609;SDS011;51019;46.090;6.350;2022-12-29T12:41:37;5.88;;;1.58;;
64609;SDS011;51019;46.090;6.350;2022-12-29T12:44:16;7.57;;;1.83;;
64609;SDS011;51019;46.090;6.350;2022-12-29T12:47:04;9.75;;;1.80;;
64609;SDS011;51019;46.090;6.350;2022-12-29T12:49:58;9.20;;;2.10;;
64609;SDS011;51019;46.090;6.350;2022-12-29T12:52:58;6.60;;;2.00;;
64609;SDS011;51019;46.090;6.350;2022-12-29T12:55:45;6.53;;;1.77;;
64609;SDS011;51019;46.090;6.350;2022-12-29T12:58:35;8.23;;;1.80;;
64609;SDS011;51019;46.090;6.350;2022-12-29T13:01:20;8.00;;;1.90;;
64609;SDS011;51019;46.090;6.350;2022-12-29T13:06:47;6.53;;;1.90;;
64609;SDS011;51019;46.090;6.350;2022-12-29T13:09:25;7.82;;;1.73;;
64609;SDS011;51019;46.090;6.350;2022-12-29T13:14:46;7.55;;;1.80;;
64609;SDS011;51019;46.090;6.350;2022-12-29T13:17:25;10.02;;;2.28;;
64609;SDS011;51019;46.090;6.350;2022-12-29T13:20:12;8.38;;;1.95;;
64609;SDS011;51019;46.090;6.350;2022-12-29T13:22:52;7.78;;;2.13;;
64609;SDS011;51019;46.090;6.350;2022-12-29T13:25:28;8.70;;;1.90;;
64609;SDS011;51019;46.090;6.350;2022-12-29T13:28:04;11.52;;;2.30;;
64609;SDS011;51019;46.090;6.350;2022-12-29T13:30:44;8.45;;;2.00;;
64609;SDS011;51019;46.090;6.350;2022-12-29T13:33:22;8.95;;;2.10;;
64609;SDS011;51019;46.090;6.350;2022-12-29T13:36:00;10.38;;;2.40;;
64609;SDS011;51019;46.090;6.350;2022-12-29T13:38:38;6.80;;;1.80;;
64609;SDS011;51019;46.090;6.350;2022-12-29T13:41:11;10.25;;;1.92;;
64609;SDS011;51019;46.090;6.350;2022-12-29T13:43:44;9.73;;;2.05;;
64609;SDS011;51019;46.090;6.350;2022-12-29T13:46:18;8.43;;;2.28;;
64609;SDS011;51019;46.090;6.350;2022-12-29T13:48:51;9.23;;;1.95;;
64609;SDS011;51019;46.090;6.350;2022-12-29T13:51:22;8.98;;;2.13;;
64609;SDS011;51019;46.090;6.350;2022-12-29T13:54:03;9.00;;;2.20;;
64609;SDS011;51019;46.090;6.350;2022-12-29T13:56:39;6.53;;;1.98;;
64609;SDS011;51019;46.090;6.350;2022-12-29T13:59:16;10.05;;;2.00;;
64609;SDS011;51019;46.090;6.350;2022-12-29T14:01:50;10.30;;;2.10;;
64609;SDS011;51019;46.090;6.350;2022-12-29T14:04:23;8.10;;;1.90;;
64609;SDS011;51019;46.090;6.350;2022-12-29T14:07:00;10.30;;;2.30;;
64609;SDS011;51019;46.090;6.350;2022-12-29T14:12:34;11.15;;;2.25;;
64609;SDS011;51019;46.090;6.350;2022-12-29T14:17:33;20.50;;;7.22;;
64609;SDS011;51019;46.090;6.350;2022-12-29T14:20:01;25.25;;;9.18;;
64609;SDS011;51019;46.090;6.350;2022-12-29T14:22:32;13.88;;;3.58;;
64609;SDS011;51019;46.090;6.350;2022-12-29T14:25:00;10.32;;;2.55;;
64609;SDS011;51019;46.090;6.350;2022-12-29T14:27:51;15.77;;;5.00;;
64609;SDS011;51019;46.090;6.350;2022-12-29T14:33:14;8.75;;;2.35;;
64609;SDS011;51019;46.090;6.350;2022-12-29T14:35:43;7.97;;;2.10;;
64609;SDS011;51019;46.090;6.350;2022-12-29T14:41:15;8.27;;;1.90;;
64609;SDS011;51019;46.090;6.350;2022-12-29T14:43:57;9.65;;;2.45;;
64609;SDS011;51019;46.090;6.350;2022-12-29T14:46:40;9.82;;;2.10;;
64609;SDS011;51019;46.090;6.350;2022-12-29T14:49:14;8.90;;;2.15;;
64609;SDS011;51019;46.090;6.350;2022-12-29T14:51:45;8.77;;;2.50;;
64609;SDS011;51019;46.090;6.350;2022-12-29T14:57:22;10.27;;;2.30;;
64609;SDS011;51019;46.090;6.350;2022-12-29T14:59:56;11.63;;;2.50;;
64609;SDS011;51019;46.090;6.350;2022-12-29T15:02:32;10.35;;;2.25;;
64609;SDS011;51019;46.090;6.350;2022-12-29T15:05:04;10.40;;;2.30;;
64609;SDS011;51019;46.090;6.350;2022-12-29T15:07:34;13.60;;;2.58;;
64609;SDS011;51019;46.090;6.350;2022-12-29T15:10:04;7.70;;;2.35;;
64609;SDS011;51019;46.090;6.350;2022-12-29T15:12:36;11.15;;;2.78;;
64609;SDS011;51019;46.090;6.350;2022-12-29T15:15:16;8.65;;;2.20;;
64609;SDS011;51019;46.090;6.350;2022-12-29T15:17:46;10.27;;;2.22;;
64609;SDS011;51019;46.090;6.350;2022-12-29T15:20:16;11.70;;;2.15;;
64609;SDS011;51019;46.090;6.350;2022-12-29T15:22:48;9.05;;;2.22;;
64609;SDS011;51019;46.090;6.350;2022-12-29T15:25:20;9.30;;;2.10;;
64609;SDS011;51019;46.090;6.350;2022-12-29T15:27:48;11.05;;;2.30;;
64609;SDS011;51019;46.090;6.350;2022-12-29T15:30:19;12.57;;;2.42;;
64609;SDS011;51019;46.090;6.350;2022-12-29T15:32:47;11.05;;;2.40;;
64609;SDS011;51019;46.090;6.350;2022-12-29T15:35:24;9.52;;;2.22;;
64609;SDS011;51019;46.090;6.350;2022-12-29T15:37:53;10.45;;;2.50;;
64609;SDS011;51019;46.090;6.350;2022-12-29T15:40:24;11.70;;;2.20;;
64609;SDS011;51019;46.090;6.350;2022-12-29T15:42:57;8.13;;;2.15;;
64609;SDS011;51019;46.090;6.350;2022-12-29T15:45:42;9.93;;;2.65;;
64609;SDS011;51019;46.090;6.350;2022-12-29T15:48:12;9.30;;;2.25;;
64609;SDS011;51019;46.090;6.350;2022-12-29T15:50:44;10.25;;;2.80;;
64609;SDS011;51019;46.090;6.350;2022-12-29T15:53:14;9.68;;;2.33;;
64609;SDS011;51019;46.090;6.350;2022-12-29T15:55:49;9.75;;;2.30;;
64609;SDS011;51019;46.090;6.350;2022-12-29T15:58:18;12.35;;;2.50;;
64609;SDS011;51019;46.090;6.350;2022-12-29T16:00:51;10.20;;;2.33;;
64609;SDS011;51019;46.090;6.350;2022-12-29T16:03:21;9.30;;;2.70;;
64609;SDS011;51019;46.090;6.350;2022-12-29T16:05:52;11.30;;;2.67;;
64609;SDS011;51019;46.090;6.350;2022-12-29T16:08:22;14.13;;;2.47;;
64609;SDS011;51019;46.090;6.350;2022-12-29T16:10:57;9.40;;;2.50;;
64609;SDS011;51019;46.090;6.350;2022-12-29T16:13:26;10.85;;;2.63;;
64609;SDS011;51019;46.090;6.350;2022-12-29T16:15:58;9.23;;;2.30;;